PWSweather.com
Personal Weather Stations
Station Observations
WD4JKH
Forsyth, GA 31029

Forsyth, GA 31029

Lat: 33.033225, Lon: -83.927995

Elevation: 709

Station Type: Davis Vantage VUE

High Low Average
Temperature 80.3°F26.8°C 69.0°F20.6°C 71.9°F22.2°C
Dew Point 77.0°F25.0°C 68.1°F20.1°C 70.8°F21.6°C
Winds 10.0 mph 16.1 kmh Calm Calm 2.0 mph SSE3.2 kmh SSE
Wind Gusts 26.0 mph41.8 kmh 1.0 mph1.6 kmh 6.0 mph9.7 kmh
Humidity 99% 87% 97%
Pressure 29.87 in1011.5 mb 29.76 in1007.8 mb -
Precipitation 1.95 in49.5 mm - -
Hour Temp Dew Point Humidity Winds Wind Gusts Pressure Precip Precip Rate Daily Precip Total
12:03 AM 69.5°F20.8°C 68.9°F20.5°C 98% 1.8 mph ESE2.9 kmh ESE 8.0 mph12.9 kmh 29.81 in1009.5 mb 0.00 in0.0 mm 0.00 in0.0 mm 0.60 in15.2 mm
12:08 AM 69.4°F20.8°C 68.8°F20.4°C 98% 2.3 mph ESE3.7 kmh ESE 8.0 mph12.9 kmh 29.80 in1009.1 mb 0.00 in0.0 mm 0.00 in0.0 mm 0.00 in0.0 mm
12:13 AM 69.4°F20.8°C 68.5°F20.3°C 97% 2.8 mph ESE4.5 kmh ESE 6.0 mph9.7 kmh 29.81 in1009.5 mb 0.00 in0.0 mm 0.00 in0.0 mm 0.00 in0.0 mm
12:18 AM 69.4°F20.8°C 68.8°F20.4°C 98% 2.1 mph ESE3.4 kmh ESE 6.0 mph9.7 kmh 29.81 in1009.5 mb 0.00 in0.0 mm 0.00 in0.0 mm 0.00 in0.0 mm
12:23 AM 69.3°F20.7°C 68.7°F20.4°C 98% 2.5 mph SE4.0 kmh SE 6.0 mph9.7 kmh 29.80 in1009.1 mb 0.00 in0.0 mm 0.00 in0.0 mm 0.00 in0.0 mm
12:28 AM 69.3°F20.7°C 68.7°F20.4°C 98% 1.7 mph SSE2.7 kmh SSE 6.0 mph9.7 kmh 29.80 in1009.1 mb 0.00 in0.0 mm 0.00 in0.0 mm 0.00 in0.0 mm
12:33 AM 69.4°F20.8°C 68.8°F20.4°C 98% 2.9 mph SE4.7 kmh SE 6.0 mph9.7 kmh 29.80 in1009.1 mb 0.00 in0.0 mm 0.00 in0.0 mm 0.00 in0.0 mm
12:38 AM 69.3°F20.7°C 68.4°F20.2°C 97% 3.2 mph SE5.1 kmh SE 6.0 mph9.7 kmh 29.80 in1009.1 mb 0.00 in0.0 mm 0.00 in0.0 mm 0.00 in0.0 mm
12:43 AM 69.3°F20.7°C 68.4°F20.2°C 97% 2.4 mph SE3.9 kmh SE 6.0 mph9.7 kmh 29.79 in1008.8 mb 0.00 in0.0 mm 0.00 in0.0 mm 0.00 in0.0 mm
12:48 AM 69.2°F20.7°C 68.3°F20.2°C 97% 2.4 mph ESE3.9 kmh ESE 6.0 mph9.7 kmh 29.79 in1008.8 mb 0.00 in0.0 mm 0.00 in0.0 mm 0.00 in0.0 mm
12:53 AM 69.1°F20.6°C 68.2°F20.1°C 97% 1.9 mph SE3.1 kmh SE 5.0 mph8.0 kmh 29.79 in1008.8 mb 0.00 in0.0 mm 0.00 in0.0 mm 0.00 in0.0 mm
12:58 AM 69.1°F20.6°C 68.2°F20.1°C 97% 1.0 mph SE1.6 kmh SE 5.0 mph8.0 kmh 29.79 in1008.8 mb 0.00 in0.0 mm 0.00 in0.0 mm 0.00 in0.0 mm
01:03 AM 69.1°F20.6°C 68.2°F20.1°C 97% 1.3 mph SE2.1 kmh SE 5.0 mph8.0 kmh 29.79 in1008.8 mb 0.00 in0.0 mm 0.00 in0.0 mm 0.00 in0.0 mm
01:08 AM 69.0°F20.6°C 68.1°F20.1°C 97% 1.3 mph ESE2.1 kmh ESE 5.0 mph8.0 kmh 29.79 in1008.8 mb 0.00 in0.0 mm 0.00 in0.0 mm 0.00 in0.0 mm
01:13 AM 69.0°F20.6°C 68.4°F20.2°C 98% 1.6 mph SE2.6 kmh SE 4.0 mph6.4 kmh 29.79 in1008.8 mb 0.00 in0.0 mm 0.00 in0.0 mm 0.00 in0.0 mm
01:18 AM 69.0°F20.6°C 68.1°F20.1°C 97% 1.9 mph SE3.1 kmh SE 4.0 mph6.4 kmh 29.79 in1008.8 mb 0.00 in0.0 mm 0.00 in0.0 mm 0.00 in0.0 mm
01:23 AM 69.0°F20.6°C 68.4°F20.2°C 98% 2.1 mph SE3.4 kmh SE 4.0 mph6.4 kmh 29.79 in1008.8 mb 0.00 in0.0 mm 0.00 in0.0 mm 0.00 in0.0 mm
01:28 AM 69.0°F20.6°C 68.4°F20.2°C 98% 1.1 mph SE1.8 kmh SE 5.0 mph8.0 kmh 29.79 in1008.8 mb 0.00 in0.0 mm 0.00 in0.0 mm 0.00 in0.0 mm
01:33 AM 69.1°F20.6°C 68.5°F20.3°C 98% 2.3 mph SE3.7 kmh SE 5.0 mph8.0 kmh 29.79 in1008.8 mb 0.00 in0.0 mm 0.00 in0.0 mm 0.00 in0.0 mm
01:38 AM 69.1°F20.6°C 68.5°F20.3°C 98% 2.3 mph SE3.7 kmh SE 5.0 mph8.0 kmh 29.80 in1009.1 mb 0.00 in0.0 mm 0.00 in0.0 mm 0.00 in0.0 mm
01:43 AM 69.1°F20.6°C 68.5°F20.3°C 98% 1.0 mph SE1.6 kmh SE 5.0 mph8.0 kmh 29.80 in1009.1 mb 0.00 in0.0 mm 0.00 in0.0 mm 0.00 in0.0 mm
01:48 AM 69.1°F20.6°C 68.5°F20.3°C 98% 1.2 mph SE1.9 kmh SE 5.0 mph8.0 kmh 29.79 in1008.8 mb 0.00 in0.0 mm 0.00 in0.0 mm 0.00 in0.0 mm
01:53 AM 69.0°F20.6°C 68.4°F20.2°C 98% 1.4 mph SE2.3 kmh SE 5.0 mph8.0 kmh 29.79 in1008.8 mb 0.00 in0.0 mm 0.00 in0.0 mm 0.00 in0.0 mm
01:58 AM 69.0°F20.6°C 68.4°F20.2°C 98% 1.5 mph SSE2.4 kmh SSE 5.0 mph8.0 kmh 29.79 in1008.8 mb 0.00 in0.0 mm 0.00 in0.0 mm 0.00 in0.0 mm
02:03 AM 69.0°F20.6°C 68.4°F20.2°C 98% 1.3 mph SSE2.1 kmh SSE 4.0 mph6.4 kmh 29.79 in1008.8 mb 0.00 in0.0 mm 0.00 in0.0 mm 0.00 in0.0 mm
02:08 AM 69.0°F20.6°C 68.4°F20.2°C 98% 1.0 mph SE1.6 kmh SE 4.0 mph6.4 kmh 29.78 in1008.5 mb 0.00 in0.0 mm 0.00 in0.0 mm 0.00 in0.0 mm
02:13 AM 69.0°F20.6°C 68.4°F20.2°C 98% Calm Calm 4.0 mph6.4 kmh 29.78 in1008.5 mb 0.00 in0.0 mm 0.00 in0.0 mm 0.00 in0.0 mm
02:18 AM 69.0°F20.6°C 68.4°F20.2°C 98% 1.0 mph SW1.6 kmh SW 4.0 mph6.4 kmh 29.78 in1008.5 mb 0.00 in0.0 mm 0.00 in0.0 mm 0.00 in0.0 mm
02:23 AM 69.0°F20.6°C 68.4°F20.2°C 98% 1.0 mph SW1.6 kmh SW 4.0 mph6.4 kmh 29.78 in1008.5 mb 0.00 in0.0 mm 0.00 in0.0 mm 0.00 in0.0 mm
02:28 AM 69.0°F20.6°C 68.4°F20.2°C 98% 1.3 mph SE2.1 kmh SE 4.0 mph6.4 kmh 29.78 in1008.5 mb 0.00 in0.0 mm 0.00 in0.0 mm 0.00 in0.0 mm
02:33 AM 69.0°F20.6°C 68.4°F20.2°C 98% 1.3 mph SSE2.1 kmh SSE 4.0 mph6.4 kmh 29.78 in1008.5 mb 0.00 in0.0 mm 0.00 in0.0 mm 0.00 in0.0 mm
02:38 AM 69.0°F20.6°C 68.4°F20.2°C 98% 2.8 mph SW4.5 kmh SW 5.0 mph8.0 kmh 29.78 in1008.5 mb 0.00 in0.0 mm 0.00 in0.0 mm 0.00 in0.0 mm
02:43 AM 69.0°F20.6°C 68.4°F20.2°C 98% 1.8 mph S2.9 kmh S 5.0 mph8.0 kmh 29.78 in1008.5 mb 0.00 in0.0 mm 0.00 in0.0 mm 0.00 in0.0 mm
02:48 AM 69.0°F20.6°C 68.4°F20.2°C 98% 1.3 mph SE2.1 kmh SE 5.0 mph8.0 kmh 29.78 in1008.5 mb 0.00 in0.0 mm 0.00 in0.0 mm 0.00 in0.0 mm
02:53 AM 69.0°F20.6°C 68.4°F20.2°C 98% 1.4 mph SE2.3 kmh SE 5.0 mph8.0 kmh 29.78 in1008.5 mb 0.00 in0.0 mm 0.00 in0.0 mm 0.00 in0.0 mm
02:58 AM 69.0°F20.6°C 68.4°F20.2°C 98% 1.8 mph SE2.9 kmh SE 5.0 mph8.0 kmh 29.78 in1008.5 mb 0.00 in0.0 mm 0.00 in0.0 mm 0.00 in0.0 mm
03:03 AM 69.1°F20.6°C 68.5°F20.3°C 98% 2.1 mph SE3.4 kmh SE 5.0 mph8.0 kmh 29.78 in1008.5 mb 0.00 in0.0 mm 0.00 in0.0 mm 0.00 in0.0 mm
03:08 AM 69.1°F20.6°C 68.5°F20.3°C 98% 1.5 mph SE2.4 kmh SE 5.0 mph8.0 kmh 29.78 in1008.5 mb 0.00 in0.0 mm 0.00 in0.0 mm 0.00 in0.0 mm
03:13 AM 69.1°F20.6°C 68.5°F20.3°C 98% 1.3 mph SE2.1 kmh SE 5.0 mph8.0 kmh 29.78 in1008.5 mb 0.00 in0.0 mm 0.00 in0.0 mm 0.00 in0.0 mm
03:18 AM 69.1°F20.6°C 68.5°F20.3°C 98% 1.8 mph SE2.9 kmh SE 5.0 mph8.0 kmh 29.78 in1008.5 mb 0.00 in0.0 mm 0.00 in0.0 mm 0.00 in0.0 mm
03:23 AM 69.1°F20.6°C 68.5°F20.3°C 98% 2.0 mph SE3.2 kmh SE 5.0 mph8.0 kmh 29.78 in1008.5 mb 0.00 in0.0 mm 0.00 in0.0 mm 0.00 in0.0 mm
03:28 AM 69.1°F20.6°C 68.5°F20.3°C 98% 2.4 mph SE3.9 kmh SE 5.0 mph8.0 kmh 29.77 in1008.1 mb 0.00 in0.0 mm 0.00 in0.0 mm 0.00 in0.0 mm
03:33 AM 69.2°F20.7°C 68.6°F20.3°C 98% 1.9 mph SE3.1 kmh SE 6.0 mph9.7 kmh 29.77 in1008.1 mb 0.00 in0.0 mm 0.00 in0.0 mm 0.00 in0.0 mm
03:38 AM 69.2°F20.7°C 68.6°F20.3°C 98% 1.9 mph SE3.1 kmh SE 6.0 mph9.7 kmh 29.77 in1008.1 mb 0.00 in0.0 mm 0.00 in0.0 mm 0.00 in0.0 mm
03:43 AM 69.2°F20.7°C 68.6°F20.3°C 98% 2.0 mph SE3.2 kmh SE 6.0 mph9.7 kmh 29.77 in1008.1 mb 0.00 in0.0 mm 0.00 in0.0 mm 0.00 in0.0 mm
03:48 AM 69.2°F20.7°C 68.6°F20.3°C 98% 2.4 mph SSE3.9 kmh SSE 6.0 mph9.7 kmh 29.77 in1008.1 mb 0.00 in0.0 mm 0.00 in0.0 mm 0.00 in0.0 mm
03:53 AM 69.2°F20.7°C 68.6°F20.3°C 98% 2.0 mph SE3.2 kmh SE 7.0 mph11.3 kmh 29.77 in1008.1 mb 0.00 in0.0 mm 0.00 in0.0 mm 0.00 in0.0 mm
03:58 AM 69.2°F20.7°C 68.6°F20.3°C 98% 2.2 mph ESE3.5 kmh ESE 7.0 mph11.3 kmh 29.77 in1008.1 mb 0.00 in0.0 mm 0.00 in0.0 mm 0.00 in0.0 mm
04:03 AM 69.2°F20.7°C 68.6°F20.3°C 98% 1.3 mph SE2.1 kmh SE 7.0 mph11.3 kmh 29.77 in1008.1 mb 0.00 in0.0 mm 0.00 in0.0 mm 0.00 in0.0 mm
04:08 AM 69.3°F20.7°C 68.7°F20.4°C 98% 2.0 mph SE3.2 kmh SE 7.0 mph11.3 kmh 29.77 in1008.1 mb 0.00 in0.0 mm 0.00 in0.0 mm 0.00 in0.0 mm
04:13 AM 69.3°F20.7°C 68.7°F20.4°C 98% 1.9 mph SE3.1 kmh SE 5.0 mph8.0 kmh 29.77 in1008.1 mb 0.00 in0.0 mm 0.00 in0.0 mm 0.00 in0.0 mm
04:18 AM 69.4°F20.8°C 68.8°F20.4°C 98% 2.0 mph S3.2 kmh S 5.0 mph8.0 kmh 29.77 in1008.1 mb 0.00 in0.0 mm 0.00 in0.0 mm 0.00 in0.0 mm
04:23 AM 69.4°F20.8°C 68.8°F20.4°C 98% Calm Calm 5.0 mph8.0 kmh 29.77 in1008.1 mb 0.01 in0.3 mm 0.12 in3.0 mm 0.01 in0.3 mm
04:28 AM 69.4°F20.8°C 68.8°F20.4°C 98% 2.1 mph SE3.4 kmh SE 4.0 mph6.4 kmh 29.77 in1008.1 mb 0.01 in0.3 mm 0.00 in0.0 mm 0.01 in0.3 mm
04:33 AM 69.5°F20.8°C 68.9°F20.5°C 98% 2.0 mph ESE3.2 kmh ESE 4.0 mph6.4 kmh 29.77 in1008.1 mb 0.01 in0.3 mm 0.00 in0.0 mm 0.01 in0.3 mm
04:38 AM 69.5°F20.8°C 68.9°F20.5°C 98% 1.3 mph ESE2.1 kmh ESE 4.0 mph6.4 kmh 29.77 in1008.1 mb 0.01 in0.3 mm 0.00 in0.0 mm 0.01 in0.3 mm
04:43 AM 69.5°F20.8°C 68.9°F20.5°C 98% 1.0 mph ESE1.6 kmh ESE 4.0 mph6.4 kmh 29.77 in1008.1 mb 0.01 in0.3 mm 0.00 in0.0 mm 0.01 in0.3 mm
04:48 AM 69.5°F20.8°C 68.9°F20.5°C 98% 1.0 mph SE1.6 kmh SE 4.0 mph6.4 kmh 29.77 in1008.1 mb 0.01 in0.3 mm 0.00 in0.0 mm 0.01 in0.3 mm
04:53 AM 69.4°F20.8°C 68.8°F20.4°C 98% 1.0 mph SE1.6 kmh SE 2.0 mph3.2 kmh 29.77 in1008.1 mb 0.01 in0.3 mm 0.00 in0.0 mm 0.01 in0.3 mm
04:58 AM 69.4°F20.8°C 68.8°F20.4°C 98% 1.6 mph SE2.6 kmh SE 2.0 mph3.2 kmh 29.77 in1008.1 mb 0.01 in0.3 mm 0.00 in0.0 mm 0.01 in0.3 mm
05:03 AM 69.4°F20.8°C 68.8°F20.4°C 98% 1.6 mph ESE2.6 kmh ESE 2.0 mph3.2 kmh 29.77 in1008.1 mb 0.01 in0.3 mm 0.00 in0.0 mm 0.01 in0.3 mm
05:08 AM 69.4°F20.8°C 68.8°F20.4°C 98% 1.5 mph SE2.4 kmh SE 4.0 mph6.4 kmh 29.77 in1008.1 mb 0.01 in0.3 mm 0.00 in0.0 mm 0.01 in0.3 mm
05:13 AM 69.4°F20.8°C 68.8°F20.4°C 98% 1.8 mph SE2.9 kmh SE 4.0 mph6.4 kmh 29.77 in1008.1 mb 0.01 in0.3 mm 0.00 in0.0 mm 0.01 in0.3 mm
05:18 AM 69.4°F20.8°C 68.8°F20.4°C 98% 1.1 mph SE1.8 kmh SE 4.0 mph6.4 kmh 29.78 in1008.5 mb 0.01 in0.3 mm 0.00 in0.0 mm 0.01 in0.3 mm
05:22 AM 69.5°F20.8°C 68.9°F20.5°C 98% 1.3 mph SSE2.1 kmh SSE 4.0 mph6.4 kmh 29.78 in1008.5 mb 0.00 in0.0 mm 0.00 in0.0 mm 0.01 in0.3 mm
05:27 AM 69.5°F20.8°C 68.9°F20.5°C 98% Calm Calm 3.0 mph4.8 kmh 29.78 in1008.5 mb 0.00 in0.0 mm 0.00 in0.0 mm 0.01 in0.3 mm
05:32 AM 69.5°F20.8°C 68.9°F20.5°C 98% Calm Calm 4.0 mph6.4 kmh 29.78 in1008.5 mb 0.00 in0.0 mm 0.00 in0.0 mm 0.01 in0.3 mm
05:37 AM 69.6°F20.9°C 69.0°F20.6°C 98% Calm Calm 4.0 mph6.4 kmh 29.78 in1008.5 mb 0.00 in0.0 mm 0.00 in0.0 mm 0.01 in0.3 mm
05:42 AM 69.6°F20.9°C 69.0°F20.6°C 98% 1.0 mph SE1.6 kmh SE 4.0 mph6.4 kmh 29.78 in1008.5 mb 0.00 in0.0 mm 0.00 in0.0 mm 0.01 in0.3 mm
05:47 AM 69.6°F20.9°C 69.0°F20.6°C 98% 1.8 mph SE2.9 kmh SE 4.0 mph6.4 kmh 29.79 in1008.8 mb 0.00 in0.0 mm 0.00 in0.0 mm 0.01 in0.3 mm
05:52 AM 69.7°F20.9°C 69.1°F20.6°C 98% Calm Calm 2.0 mph3.2 kmh 29.79 in1008.8 mb 0.01 in0.3 mm 0.12 in3.0 mm 0.02 in0.5 mm
05:57 AM 69.8°F21.0°C 69.2°F20.7°C 98% 1.1 mph E1.8 kmh E 2.0 mph3.2 kmh 29.78 in1008.5 mb 0.01 in0.3 mm 0.00 in0.0 mm 0.02 in0.5 mm
06:02 AM 69.8°F21.0°C 69.2°F20.7°C 98% 1.0 mph S1.6 kmh S 2.0 mph3.2 kmh 29.78 in1008.5 mb 0.01 in0.3 mm 0.00 in0.0 mm 0.02 in0.5 mm
06:07 AM 69.8°F21.0°C 69.2°F20.7°C 98% 1.5 mph SE2.4 kmh SE 3.0 mph4.8 kmh 29.78 in1008.5 mb 0.01 in0.3 mm 0.00 in0.0 mm 0.02 in0.5 mm
06:12 AM 69.9°F21.1°C 69.3°F20.7°C 98% 2.5 mph SE4.0 kmh SE 5.0 mph8.0 kmh 29.78 in1008.5 mb 0.01 in0.3 mm 0.00 in0.0 mm 0.02 in0.5 mm
06:17 AM 70.0°F21.1°C 69.4°F20.8°C 98% 1.9 mph SE3.1 kmh SE 5.0 mph8.0 kmh 29.78 in1008.5 mb 0.01 in0.3 mm 0.00 in0.0 mm 0.02 in0.5 mm
06:22 AM 70.0°F21.1°C 69.4°F20.8°C 98% 1.4 mph SE2.3 kmh SE 5.0 mph8.0 kmh 29.78 in1008.5 mb 0.01 in0.3 mm 0.00 in0.0 mm 0.02 in0.5 mm
06:27 AM 70.0°F21.1°C 69.4°F20.8°C 98% Calm Calm 5.0 mph8.0 kmh 29.78 in1008.5 mb 0.01 in0.3 mm 0.00 in0.0 mm 0.02 in0.5 mm
06:32 AM 70.0°F21.1°C 69.4°F20.8°C 98% Calm Calm 4.0 mph6.4 kmh 29.78 in1008.5 mb 0.01 in0.3 mm 0.00 in0.0 mm 0.02 in0.5 mm
06:37 AM 70.1°F21.2°C 69.5°F20.8°C 98% 1.5 mph SE2.4 kmh SE 3.0 mph4.8 kmh 29.78 in1008.5 mb 0.01 in0.3 mm 0.00 in0.0 mm 0.02 in0.5 mm
06:42 AM 70.1°F21.2°C 69.5°F20.8°C 98% 1.4 mph SE2.3 kmh SE 4.0 mph6.4 kmh 29.78 in1008.5 mb 0.01 in0.3 mm 0.00 in0.0 mm 0.02 in0.5 mm
06:47 AM 70.2°F21.2°C 69.6°F20.9°C 98% 1.9 mph ESE3.1 kmh ESE 4.0 mph6.4 kmh 29.78 in1008.5 mb 0.01 in0.3 mm 0.00 in0.0 mm 0.02 in0.5 mm
06:52 AM 70.2°F21.2°C 69.6°F20.9°C 98% 2.0 mph E3.2 kmh E 4.0 mph6.4 kmh 29.78 in1008.5 mb 0.00 in0.0 mm 0.00 in0.0 mm 0.02 in0.5 mm
06:57 AM 70.2°F21.2°C 69.6°F20.9°C 98% 1.9 mph SE3.1 kmh SE 4.0 mph6.4 kmh 29.78 in1008.5 mb 0.00 in0.0 mm 0.00 in0.0 mm 0.02 in0.5 mm
07:02 AM 70.3°F21.3°C 69.7°F20.9°C 98% 1.1 mph SE1.8 kmh SE 4.0 mph6.4 kmh 29.78 in1008.5 mb 0.00 in0.0 mm 0.00 in0.0 mm 0.02 in0.5 mm
07:07 AM 70.3°F21.3°C 69.7°F20.9°C 98% 1.0 mph SE1.6 kmh SE 4.0 mph6.4 kmh 29.78 in1008.5 mb 0.00 in0.0 mm 0.00 in0.0 mm 0.02 in0.5 mm
07:12 AM 70.5°F21.4°C 69.9°F21.1°C 98% 2.1 mph SE3.4 kmh SE 4.0 mph6.4 kmh 29.78 in1008.5 mb 0.00 in0.0 mm 0.00 in0.0 mm 0.02 in0.5 mm
07:17 AM 70.6°F21.4°C 70.0°F21.1°C 98% 1.5 mph SE2.4 kmh SE 4.0 mph6.4 kmh 29.78 in1008.5 mb 0.00 in0.0 mm 0.00 in0.0 mm 0.02 in0.5 mm
07:22 AM 70.7°F21.5°C 70.1°F21.2°C 98% 2.2 mph SE3.5 kmh SE 6.0 mph9.7 kmh 29.78 in1008.5 mb 0.00 in0.0 mm 0.00 in0.0 mm 0.02 in0.5 mm
07:27 AM 70.8°F21.6°C 70.2°F21.2°C 98% 1.3 mph SE2.1 kmh SE 6.0 mph9.7 kmh 29.78 in1008.5 mb 0.00 in0.0 mm 0.00 in0.0 mm 0.02 in0.5 mm
07:32 AM 70.9°F21.6°C 70.3°F21.3°C 98% 2.8 mph SE4.5 kmh SE 6.0 mph9.7 kmh 29.78 in1008.5 mb 0.00 in0.0 mm 0.00 in0.0 mm 0.02 in0.5 mm
07:37 AM 70.9°F21.6°C 70.3°F21.3°C 98% 2.7 mph SE4.3 kmh SE 6.0 mph9.7 kmh 29.78 in1008.5 mb 0.00 in0.0 mm 0.00 in0.0 mm 0.02 in0.5 mm
07:42 AM 71.0°F21.7°C 70.4°F21.3°C 98% 2.5 mph SE4.0 kmh SE 7.0 mph11.3 kmh 29.78 in1008.5 mb 0.00 in0.0 mm 0.00 in0.0 mm 0.02 in0.5 mm
07:47 AM 71.1°F21.7°C 70.5°F21.4°C 98% 2.0 mph SE3.2 kmh SE 7.0 mph11.3 kmh 29.78 in1008.5 mb 0.00 in0.0 mm 0.00 in0.0 mm 0.02 in0.5 mm
07:52 AM 71.1°F21.7°C 70.5°F21.4°C 98% 3.3 mph SE5.3 kmh SE 7.0 mph11.3 kmh 29.78 in1008.5 mb 0.00 in0.0 mm 0.00 in0.0 mm 0.02 in0.5 mm
07:57 AM 71.2°F21.8°C 70.6°F21.4°C 98% 2.6 mph SE4.2 kmh SE 7.0 mph11.3 kmh 29.78 in1008.5 mb 0.00 in0.0 mm 0.00 in0.0 mm 0.02 in0.5 mm
08:02 AM 71.3°F21.8°C 70.7°F21.5°C 98% 2.6 mph SE4.2 kmh SE 9.0 mph14.5 kmh 29.78 in1008.5 mb 0.00 in0.0 mm 0.00 in0.0 mm 0.02 in0.5 mm
08:07 AM 71.3°F21.8°C 70.7°F21.5°C 98% 2.8 mph SE4.5 kmh SE 9.0 mph14.5 kmh 29.78 in1008.5 mb 0.00 in0.0 mm 0.00 in0.0 mm 0.02 in0.5 mm
08:12 AM 71.4°F21.9°C 70.8°F21.6°C 98% 1.7 mph SSE2.7 kmh SSE 9.0 mph14.5 kmh 29.79 in1008.8 mb 0.00 in0.0 mm 0.00 in0.0 mm 0.02 in0.5 mm
08:17 AM 71.5°F21.9°C 70.9°F21.6°C 98% 3.3 mph SE5.3 kmh SE 11.0 mph17.7 kmh 29.79 in1008.8 mb 0.00 in0.0 mm 0.00 in0.0 mm 0.02 in0.5 mm
08:22 AM 71.6°F22.0°C 71.0°F21.7°C 98% 1.8 mph SSE2.9 kmh SSE 11.0 mph17.7 kmh 29.79 in1008.8 mb 0.00 in0.0 mm 0.00 in0.0 mm 0.02 in0.5 mm
08:27 AM 71.6°F22.0°C 71.0°F21.7°C 98% 3.3 mph SSE5.3 kmh SSE 11.0 mph17.7 kmh 29.79 in1008.8 mb 0.01 in0.3 mm 0.12 in3.0 mm 0.03 in0.8 mm
08:32 AM 71.7°F22.1°C 71.1°F21.7°C 98% 1.6 mph SSE2.6 kmh SSE 11.0 mph17.7 kmh 29.79 in1008.8 mb 0.03 in0.8 mm 0.24 in6.1 mm 0.05 in1.3 mm
08:37 AM 71.7°F22.1°C 71.1°F21.7°C 98% 1.8 mph SSE2.9 kmh SSE 7.0 mph11.3 kmh 29.80 in1009.1 mb 0.04 in1.0 mm 0.12 in3.0 mm 0.06 in1.5 mm
08:42 AM 71.7°F22.1°C 71.1°F21.7°C 98% 1.4 mph SSE2.3 kmh SSE 6.0 mph9.7 kmh 29.80 in1009.1 mb 0.05 in1.3 mm 0.12 in3.0 mm 0.07 in1.8 mm
08:47 AM 71.8°F22.1°C 71.2°F21.8°C 98% 1.7 mph S2.7 kmh S 5.0 mph8.0 kmh 29.80 in1009.1 mb 0.05 in1.3 mm 0.00 in0.0 mm 0.07 in1.8 mm
08:52 AM 71.6°F22.0°C 71.0°F21.7°C 98% 5.6 mph SE9.0 kmh SE 13.0 mph20.9 kmh 29.80 in1009.1 mb 0.06 in1.5 mm 0.12 in3.0 mm 0.08 in2.0 mm
08:57 AM 71.4°F21.9°C 70.8°F21.6°C 98% 2.7 mph SE4.3 kmh SE 13.0 mph20.9 kmh 29.79 in1008.8 mb 0.08 in2.0 mm 0.24 in6.1 mm 0.10 in2.5 mm
09:02 AM 71.2°F21.8°C 70.6°F21.4°C 98% 1.6 mph SE2.6 kmh SE 13.0 mph20.9 kmh 29.79 in1008.8 mb 0.09 in2.3 mm 0.01 in0.3 mm 0.11 in2.8 mm
09:07 AM 70.8°F21.6°C 70.2°F21.2°C 98% 3.8 mph SSE6.1 kmh SSE 13.0 mph20.9 kmh 29.79 in1008.8 mb 0.09 in2.3 mm 0.00 in0.0 mm 0.11 in2.8 mm
09:12 AM 70.7°F21.5°C 70.1°F21.2°C 98% 2.3 mph SE3.7 kmh SE 9.0 mph14.5 kmh 29.80 in1009.1 mb 0.14 in3.6 mm 0.60 in15.2 mm 0.16 in4.1 mm
09:17 AM 70.5°F21.4°C 69.9°F21.1°C 98% 1.2 mph SSE1.9 kmh SSE 9.0 mph14.5 kmh 29.80 in1009.1 mb 0.14 in3.6 mm 0.00 in0.0 mm 0.16 in4.1 mm
09:22 AM 70.4°F21.3°C 69.8°F21.0°C 98% 1.5 mph SE2.4 kmh SE 9.0 mph14.5 kmh 29.80 in1009.1 mb 0.14 in3.6 mm 0.00 in0.0 mm 0.16 in4.1 mm
09:27 AM 70.5°F21.4°C 69.9°F21.1°C 98% 1.7 mph S2.7 kmh S 8.0 mph12.9 kmh 29.80 in1009.1 mb 0.13 in3.3 mm 0.00 in0.0 mm 0.16 in4.1 mm
09:32 AM 70.5°F21.4°C 69.9°F21.1°C 98% 2.1 mph SE3.4 kmh SE 8.0 mph12.9 kmh 29.81 in1009.5 mb 0.11 in2.8 mm 0.00 in0.0 mm 0.16 in4.1 mm
09:37 AM 70.6°F21.4°C 70.0°F21.1°C 98% 1.5 mph SE2.4 kmh SE 6.0 mph9.7 kmh 29.81 in1009.5 mb 0.10 in2.5 mm 0.00 in0.0 mm 0.16 in4.1 mm
09:42 AM 70.8°F21.6°C 70.2°F21.2°C 98% 1.6 mph SE2.6 kmh SE 6.0 mph9.7 kmh 29.80 in1009.1 mb 0.09 in2.3 mm 0.00 in0.0 mm 0.16 in4.1 mm
09:47 AM 71.0°F21.7°C 70.4°F21.3°C 98% 2.3 mph SSE3.7 kmh SSE 4.0 mph6.4 kmh 29.80 in1009.1 mb 0.10 in2.5 mm 0.12 in3.0 mm 0.17 in4.3 mm
09:52 AM 71.2°F21.8°C 70.6°F21.4°C 98% 1.1 mph S1.8 kmh S 4.0 mph6.4 kmh 29.80 in1009.1 mb 0.10 in2.5 mm 0.00 in0.0 mm 0.18 in4.6 mm
09:57 AM 71.4°F21.9°C 70.8°F21.6°C 98% 1.0 mph SE1.6 kmh SE 4.0 mph6.4 kmh 29.80 in1009.1 mb 0.08 in2.0 mm 0.00 in0.0 mm 0.18 in4.6 mm
10:02 AM 71.7°F22.1°C 71.1°F21.7°C 98% 1.0 mph SW1.6 kmh SW 4.0 mph6.4 kmh 29.80 in1009.1 mb 0.07 in1.8 mm 0.00 in0.0 mm 0.18 in4.6 mm
10:07 AM 71.9°F22.2°C 71.3°F21.8°C 98% 1.6 mph SE2.6 kmh SE 4.0 mph6.4 kmh 29.80 in1009.1 mb 0.07 in1.8 mm 0.00 in0.0 mm 0.18 in4.6 mm
10:12 AM 72.4°F22.4°C 71.8°F22.1°C 98% 1.0 mph SE1.6 kmh SE 4.0 mph6.4 kmh 29.80 in1009.1 mb 0.02 in0.5 mm 0.00 in0.0 mm 0.18 in4.6 mm
10:17 AM 72.9°F22.7°C 72.3°F22.4°C 98% 1.1 mph SSE1.8 kmh SSE 4.0 mph6.4 kmh 29.80 in1009.1 mb 0.02 in0.5 mm 0.00 in0.0 mm 0.18 in4.6 mm
10:22 AM 73.5°F23.1°C 72.9°F22.7°C 98% 1.8 mph SSE2.9 kmh SSE 4.0 mph6.4 kmh 29.80 in1009.1 mb 0.02 in0.5 mm 0.00 in0.0 mm 0.18 in4.6 mm
10:27 AM 73.7°F23.2°C 73.1°F22.8°C 98% 2.7 mph S4.3 kmh S 5.0 mph8.0 kmh 29.80 in1009.1 mb 0.02 in0.5 mm 0.00 in0.0 mm 0.18 in4.6 mm
10:32 AM 73.9°F23.3°C 73.3°F22.9°C 98% 3.4 mph SSE5.5 kmh SSE 8.0 mph12.9 kmh 29.80 in1009.1 mb 0.02 in0.5 mm 0.00 in0.0 mm 0.18 in4.6 mm
10:37 AM 74.1°F23.4°C 73.5°F23.1°C 98% 2.2 mph SE3.5 kmh SE 8.0 mph12.9 kmh 29.80 in1009.1 mb 0.02 in0.5 mm 0.00 in0.0 mm 0.18 in4.6 mm
10:42 AM 74.5°F23.6°C 73.9°F23.3°C 98% 1.8 mph SE2.9 kmh SE 8.0 mph12.9 kmh 29.80 in1009.1 mb 0.02 in0.5 mm 0.00 in0.0 mm 0.18 in4.6 mm
10:47 AM 74.8°F23.8°C 74.2°F23.4°C 98% Calm Calm 8.0 mph12.9 kmh 29.80 in1009.1 mb 0.01 in0.3 mm 0.00 in0.0 mm 0.18 in4.6 mm
10:52 AM 75.0°F23.9°C 74.4°F23.6°C 98% 3.1 mph SSE5.0 kmh SSE 7.0 mph11.3 kmh 29.80 in1009.1 mb 0.00 in0.0 mm 0.00 in0.0 mm 0.18 in4.6 mm
10:57 AM 75.4°F24.1°C 74.8°F23.8°C 98% 1.6 mph S2.6 kmh S 7.0 mph11.3 kmh 29.80 in1009.1 mb 0.00 in0.0 mm 0.00 in0.0 mm 0.18 in4.6 mm
11:02 AM 75.7°F24.3°C 75.1°F23.9°C 98% 1.7 mph SSE2.7 kmh SSE 7.0 mph11.3 kmh 29.80 in1009.1 mb 0.00 in0.0 mm 0.00 in0.0 mm 0.18 in4.6 mm
11:07 AM 75.8°F24.3°C 74.9°F23.8°C 97% 2.6 mph S4.2 kmh S 7.0 mph11.3 kmh 29.80 in1009.1 mb 0.00 in0.0 mm 0.00 in0.0 mm 0.18 in4.6 mm
11:12 AM 76.2°F24.6°C 75.3°F24.1°C 97% 1.2 mph S1.9 kmh S 6.0 mph9.7 kmh 29.80 in1009.1 mb 0.00 in0.0 mm 0.00 in0.0 mm 0.18 in4.6 mm
11:16 AM 76.4°F24.7°C 75.5°F24.2°C 97% 1.7 mph SSW2.7 kmh SSW 5.0 mph8.0 kmh 29.80 in1009.1 mb 0.00 in0.0 mm 0.00 in0.0 mm 0.18 in4.6 mm
11:21 AM 76.6°F24.8°C 75.4°F24.1°C 96% 1.8 mph S2.9 kmh S 5.0 mph8.0 kmh 29.80 in1009.1 mb 0.00 in0.0 mm 0.00 in0.0 mm 0.18 in4.6 mm
11:26 AM 76.7°F24.8°C 75.4°F24.1°C 96% 3.3 mph S5.3 kmh S 9.0 mph14.5 kmh 29.80 in1009.1 mb 0.00 in0.0 mm 0.00 in0.0 mm 0.18 in4.6 mm
11:31 AM 76.6°F24.8°C 75.0°F23.9°C 95% 2.8 mph SSE4.5 kmh SSE 9.0 mph14.5 kmh 29.80 in1009.1 mb 0.01 in0.3 mm 0.12 in3.0 mm 0.19 in4.8 mm
11:36 AM 76.5°F24.7°C 75.0°F23.9°C 95% 2.4 mph SSW3.9 kmh SSW 9.0 mph14.5 kmh 29.80 in1009.1 mb 0.02 in0.5 mm 0.12 in3.0 mm 0.20 in5.1 mm
11:41 AM 76.2°F24.6°C 74.6°F23.7°C 95% 2.2 mph SSW3.5 kmh SSW 9.0 mph14.5 kmh 29.80 in1009.1 mb 0.03 in0.8 mm 0.12 in3.0 mm 0.21 in5.3 mm
11:46 AM 76.0°F24.4°C 74.4°F23.6°C 95% 1.7 mph SW2.7 kmh SW 9.0 mph14.5 kmh 29.81 in1009.5 mb 0.04 in1.0 mm 0.12 in3.0 mm 0.22 in5.6 mm
11:51 AM 75.0°F23.9°C 72.8°F22.7°C 93% 4.7 mph SW7.6 kmh SW 13.0 mph20.9 kmh 29.81 in1009.5 mb 0.05 in1.3 mm 0.12 in3.0 mm 0.23 in5.8 mm
11:56 AM 74.6°F23.7°C 72.7°F22.6°C 94% 1.4 mph SW2.3 kmh SW 13.0 mph20.9 kmh 29.80 in1009.1 mb 0.07 in1.8 mm 0.24 in6.1 mm 0.25 in6.4 mm
12:01 PM 74.5°F23.6°C 72.9°F22.7°C 95% 1.2 mph S1.9 kmh S 13.0 mph20.9 kmh 29.80 in1009.1 mb 0.08 in2.0 mm 0.01 in0.3 mm 0.26 in6.6 mm
12:06 PM 74.7°F23.7°C 73.5°F23.1°C 96% 1.3 mph SW2.1 kmh SW 13.0 mph20.9 kmh 29.80 in1009.1 mb 0.09 in2.3 mm 0.12 in3.0 mm 0.27 in6.9 mm
12:11 PM 74.8°F23.8°C 73.6°F23.1°C 96% 1.5 mph SW2.4 kmh SW 5.0 mph8.0 kmh 29.80 in1009.1 mb 0.09 in2.3 mm 0.00 in0.0 mm 0.27 in6.9 mm
12:16 PM 74.9°F23.8°C 73.7°F23.2°C 96% 1.8 mph SSW2.9 kmh SSW 5.0 mph8.0 kmh 29.80 in1009.1 mb 0.09 in2.3 mm 0.00 in0.0 mm 0.27 in6.9 mm
12:21 PM 75.1°F23.9°C 73.9°F23.3°C 96% 1.4 mph S2.3 kmh S 5.0 mph8.0 kmh 29.80 in1009.1 mb 0.09 in2.3 mm 0.00 in0.0 mm 0.27 in6.9 mm
12:26 PM 75.4°F24.1°C 74.5°F23.6°C 97% 1.1 mph SE1.8 kmh SE 5.0 mph8.0 kmh 29.80 in1009.1 mb 0.10 in2.5 mm 0.12 in3.0 mm 0.28 in7.1 mm
12:31 PM 75.6°F24.2°C 74.7°F23.7°C 97% 1.3 mph S2.1 kmh S 5.0 mph8.0 kmh 29.80 in1009.1 mb 0.09 in2.3 mm 0.00 in0.0 mm 0.28 in7.1 mm
12:36 PM 75.7°F24.3°C 74.5°F23.6°C 96% 1.4 mph SSE2.3 kmh SSE 5.0 mph8.0 kmh 29.80 in1009.1 mb 0.08 in2.0 mm 0.00 in0.0 mm 0.28 in7.1 mm
12:41 PM 75.8°F24.3°C 74.6°F23.7°C 96% 1.6 mph SSE2.6 kmh SSE 4.0 mph6.4 kmh 29.80 in1009.1 mb 0.07 in1.8 mm 0.00 in0.0 mm 0.28 in7.1 mm
12:46 PM 75.9°F24.4°C 74.7°F23.7°C 96% 2.2 mph E3.5 kmh E 4.0 mph6.4 kmh 29.79 in1008.8 mb 0.06 in1.5 mm 0.00 in0.0 mm 0.28 in7.1 mm
12:51 PM 76.2°F24.6°C 74.9°F23.8°C 96% 1.5 mph SE2.4 kmh SE 4.0 mph6.4 kmh 29.79 in1008.8 mb 0.05 in1.3 mm 0.00 in0.0 mm 0.28 in7.1 mm
12:56 PM 76.5°F24.7°C 75.3°F24.1°C 96% 2.4 mph SE3.9 kmh SE 4.0 mph6.4 kmh 29.79 in1008.8 mb 0.03 in0.8 mm 0.00 in0.0 mm 0.28 in7.1 mm
01:01 PM 76.8°F24.9°C 75.5°F24.2°C 96% 2.1 mph SSE3.4 kmh SSE 6.0 mph9.7 kmh 29.78 in1008.5 mb 0.02 in0.5 mm 0.00 in0.0 mm 0.28 in7.1 mm
01:06 PM 77.2°F25.1°C 75.6°F24.2°C 95% 2.3 mph SE3.7 kmh SE 7.0 mph11.3 kmh 29.78 in1008.5 mb 0.01 in0.3 mm 0.00 in0.0 mm 0.28 in7.1 mm
01:11 PM 77.6°F25.3°C 75.7°F24.3°C 94% 3.1 mph SE5.0 kmh SE 7.0 mph11.3 kmh 29.78 in1008.5 mb 0.01 in0.3 mm 0.00 in0.0 mm 0.28 in7.1 mm
01:16 PM 78.1°F25.6°C 75.9°F24.4°C 93% 1.7 mph SW2.7 kmh SW 7.0 mph11.3 kmh 29.78 in1008.5 mb 0.01 in0.3 mm 0.00 in0.0 mm 0.28 in7.1 mm
01:21 PM 78.6°F25.9°C 76.1°F24.5°C 92% 2.6 mph SSE4.2 kmh SSE 7.0 mph11.3 kmh 29.78 in1008.5 mb 0.01 in0.3 mm 0.00 in0.0 mm 0.28 in7.1 mm
01:26 PM 79.2°F26.2°C 77.0°F25.0°C 93% 2.1 mph ESE3.4 kmh ESE 7.0 mph11.3 kmh 29.79 in1008.8 mb 0.00 in0.0 mm 0.00 in0.0 mm 0.28 in7.1 mm
01:31 PM 79.7°F26.5°C 76.8°F24.9°C 91% 1.8 mph SSE2.9 kmh SSE 6.0 mph9.7 kmh 29.78 in1008.5 mb 0.00 in0.0 mm 0.00 in0.0 mm 0.28 in7.1 mm
01:36 PM 79.8°F26.6°C 76.6°F24.8°C 90% 1.7 mph SSW2.7 kmh SSW 7.0 mph11.3 kmh 29.79 in1008.8 mb 0.00 in0.0 mm 0.00 in0.0 mm 0.28 in7.1 mm
01:41 PM 80.1°F26.7°C 76.2°F24.6°C 88% 1.4 mph S2.3 kmh S 7.0 mph11.3 kmh 29.78 in1008.5 mb 0.00 in0.0 mm 0.00 in0.0 mm 0.28 in7.1 mm
01:46 PM 80.1°F26.7°C 76.2°F24.6°C 88% 2.4 mph SSW3.9 kmh SSW 7.0 mph11.3 kmh 29.78 in1008.5 mb 0.00 in0.0 mm 0.00 in0.0 mm 0.28 in7.1 mm
01:51 PM 80.2°F26.8°C 76.7°F24.8°C 89% 2.5 mph SE4.0 kmh SE 6.0 mph9.7 kmh 29.78 in1008.5 mb 0.00 in0.0 mm 0.00 in0.0 mm 0.28 in7.1 mm
01:56 PM 79.8°F26.6°C 75.9°F24.4°C 88% 3.7 mph SE6.0 kmh SE 9.0 mph14.5 kmh 29.78 in1008.5 mb 0.00 in0.0 mm 0.00 in0.0 mm 0.28 in7.1 mm
02:01 PM 79.4°F26.3°C 75.5°F24.2°C 88% 4.6 mph SE7.4 kmh SE 9.0 mph14.5 kmh 29.78 in1008.5 mb 0.00 in0.0 mm 0.00 in0.0 mm 0.28 in7.1 mm
02:06 PM 78.9°F26.1°C 75.0°F23.9°C 88% 3.9 mph ESE6.3 kmh ESE 9.0 mph14.5 kmh 29.78 in1008.5 mb 0.00 in0.0 mm 0.00 in0.0 mm 0.28 in7.1 mm
02:11 PM 79.1°F26.2°C 75.3°F24.1°C 88% 2.2 mph ESE3.5 kmh ESE 9.0 mph14.5 kmh 29.77 in1008.1 mb 0.00 in0.0 mm 0.00 in0.0 mm 0.28 in7.1 mm
02:16 PM 79.3°F26.3°C 75.5°F24.2°C 88% 2.5 mph SE4.0 kmh SE 8.0 mph12.9 kmh 29.77 in1008.1 mb 0.00 in0.0 mm 0.00 in0.0 mm 0.28 in7.1 mm
02:21 PM 79.8°F26.6°C 76.3°F24.6°C 89% 1.0 mph SSW1.6 kmh SSW 7.0 mph11.3 kmh 29.77 in1008.1 mb 0.00 in0.0 mm 0.00 in0.0 mm 0.28 in7.1 mm
02:26 PM 80.3°F26.8°C 76.8°F24.9°C 89% 1.0 mph SW1.6 kmh SW 5.0 mph8.0 kmh 29.76 in1007.8 mb 0.00 in0.0 mm 0.00 in0.0 mm 0.28 in7.1 mm
02:31 PM 80.2°F26.8°C 76.7°F24.8°C 89% 2.4 mph SW3.9 kmh SW 9.0 mph14.5 kmh 29.77 in1008.1 mb 0.00 in0.0 mm 0.00 in0.0 mm 0.28 in7.1 mm
02:36 PM 79.1°F26.2°C 75.6°F24.2°C 89% 3.6 mph SW5.8 kmh SW 9.0 mph14.5 kmh 29.77 in1008.1 mb 0.02 in0.5 mm 0.24 in6.1 mm 0.30 in7.6 mm
02:41 PM 77.9°F25.5°C 74.4°F23.6°C 89% 1.3 mph SSW2.1 kmh SSW 9.0 mph14.5 kmh 29.77 in1008.1 mb 0.03 in0.8 mm 0.12 in3.0 mm 0.31 in7.9 mm
02:46 PM 76.9°F24.9°C 73.7°F23.2°C 90% 1.0 mph S1.6 kmh S 9.0 mph14.5 kmh 29.77 in1008.1 mb 0.03 in0.8 mm 0.00 in0.0 mm 0.31 in7.9 mm
02:51 PM 76.4°F24.7°C 73.6°F23.1°C 91% 1.8 mph SW2.9 kmh SW 7.0 mph11.3 kmh 29.76 in1007.8 mb 0.03 in0.8 mm 0.00 in0.0 mm 0.31 in7.9 mm
02:56 PM 75.9°F24.4°C 73.4°F23.0°C 92% 1.4 mph SW2.3 kmh SW 5.0 mph8.0 kmh 29.77 in1008.1 mb 0.03 in0.8 mm 0.00 in0.0 mm 0.31 in7.9 mm
03:01 PM 75.6°F24.2°C 73.1°F22.8°C 92% 1.0 mph SW1.6 kmh SW 5.0 mph8.0 kmh 29.77 in1008.1 mb 0.03 in0.8 mm 0.00 in0.0 mm 0.31 in7.9 mm
03:06 PM 75.5°F24.2°C 73.0°F22.8°C 92% 2.0 mph SW3.2 kmh SW 5.0 mph8.0 kmh 29.77 in1008.1 mb 0.03 in0.8 mm 0.00 in0.0 mm 0.31 in7.9 mm
03:11 PM 75.5°F24.2°C 73.3°F22.9°C 93% 2.8 mph SSW4.5 kmh SSW 8.0 mph12.9 kmh 29.77 in1008.1 mb 0.03 in0.8 mm 0.00 in0.0 mm 0.31 in7.9 mm
03:16 PM 75.9°F24.4°C 73.7°F23.2°C 93% 1.3 mph WSW2.1 kmh WSW 8.0 mph12.9 kmh 29.77 in1008.1 mb 0.03 in0.8 mm 0.00 in0.0 mm 0.31 in7.9 mm
03:21 PM 76.4°F24.7°C 74.2°F23.4°C 93% 1.1 mph S1.8 kmh S 8.0 mph12.9 kmh 29.77 in1008.1 mb 0.03 in0.8 mm 0.00 in0.0 mm 0.31 in7.9 mm
03:26 PM 76.6°F24.8°C 74.1°F23.4°C 92% 1.0 mph SW1.6 kmh SW 6.0 mph9.7 kmh 29.77 in1008.1 mb 0.03 in0.8 mm 0.00 in0.0 mm 0.31 in7.9 mm
03:31 PM 77.0°F25.0°C 74.5°F23.6°C 92% 1.5 mph SW2.4 kmh SW 4.0 mph6.4 kmh 29.76 in1007.8 mb 0.03 in0.8 mm 0.00 in0.0 mm 0.31 in7.9 mm
03:36 PM 77.2°F25.1°C 74.7°F23.7°C 92% 1.1 mph S1.8 kmh S 4.0 mph6.4 kmh 29.77 in1008.1 mb 0.01 in0.3 mm 0.00 in0.0 mm 0.31 in7.9 mm
03:41 PM 77.5°F25.3°C 75.0°F23.9°C 92% 1.7 mph SW2.7 kmh SW 4.0 mph6.4 kmh 29.77 in1008.1 mb 0.00 in0.0 mm 0.00 in0.0 mm 0.31 in7.9 mm
03:46 PM 77.8°F25.4°C 74.9°F23.8°C 91% 1.0 mph WSW1.6 kmh WSW 4.0 mph6.4 kmh 29.77 in1008.1 mb 0.00 in0.0 mm 0.00 in0.0 mm 0.31 in7.9 mm
03:51 PM 78.1°F25.6°C 75.6°F24.2°C 92% Calm Calm 4.0 mph6.4 kmh 29.76 in1007.8 mb 0.00 in0.0 mm 0.00 in0.0 mm 0.31 in7.9 mm
03:56 PM 78.4°F25.8°C 75.6°F24.2°C 91% Calm Calm 4.0 mph6.4 kmh 29.76 in1007.8 mb 0.00 in0.0 mm 0.00 in0.0 mm 0.31 in7.9 mm
04:01 PM 78.5°F25.8°C 75.3°F24.1°C 90% Calm Calm 2.0 mph3.2 kmh 29.76 in1007.8 mb 0.00 in0.0 mm 0.00 in0.0 mm 0.31 in7.9 mm
04:06 PM 78.4°F25.8°C 74.9°F23.8°C 89% 1.0 mph WSW1.6 kmh WSW 2.0 mph3.2 kmh 29.77 in1008.1 mb 0.00 in0.0 mm 0.00 in0.0 mm 0.31 in7.9 mm
04:11 PM 78.4°F25.8°C 74.9°F23.8°C 89% 1.0 mph WSW1.6 kmh WSW 2.0 mph3.2 kmh 29.77 in1008.1 mb 0.00 in0.0 mm 0.00 in0.0 mm 0.31 in7.9 mm
04:16 PM 78.4°F25.8°C 74.9°F23.8°C 89% Calm Calm 1.0 mph1.6 kmh 29.77 in1008.1 mb 0.00 in0.0 mm 0.00 in0.0 mm 0.31 in7.9 mm
04:21 PM 78.5°F25.8°C 75.6°F24.2°C 91% Calm Calm 1.0 mph1.6 kmh 29.77 in1008.1 mb 0.00 in0.0 mm 0.00 in0.0 mm 0.31 in7.9 mm
04:26 PM 78.0°F25.6°C 74.8°F23.8°C 90% 3.7 mph W6.0 kmh W 9.0 mph14.5 kmh 29.79 in1008.8 mb 0.00 in0.0 mm 0.00 in0.0 mm 0.31 in7.9 mm
04:31 PM 75.2°F24.0°C 71.1°F21.7°C 87% 10.0 mph WNW16.1 kmh WNW 26.0 mph41.8 kmh 29.79 in1008.8 mb 0.09 in2.3 mm 1.08 in27.4 mm 0.40 in10.2 mm
04:36 PM 72.3°F22.4°C 69.5°F20.8°C 91% 3.3 mph NW5.3 kmh NW 26.0 mph41.8 kmh 29.78 in1008.5 mb 0.31 in7.9 mm 2.64 in67.1 mm 0.62 in15.7 mm
04:41 PM 71.1°F21.7°C 69.3°F20.7°C 94% 3.6 mph W5.8 kmh W 26.0 mph41.8 kmh 29.79 in1008.8 mb 0.51 in13.0 mm 2.40 in61.0 mm 0.82 in20.8 mm
04:46 PM 70.6°F21.4°C 69.1°F20.6°C 95% 3.1 mph WSW5.0 kmh WSW 26.0 mph41.8 kmh 29.80 in1009.1 mb 0.79 in20.1 mm 3.36 in85.3 mm 1.10 in27.9 mm
04:51 PM 70.3°F21.3°C 68.8°F20.4°C 95% 1.9 mph SW3.1 kmh SW 10.0 mph16.1 kmh 29.79 in1008.8 mb 1.04 in26.4 mm 3.00 in76.2 mm 1.36 in34.5 mm
04:56 PM 70.1°F21.2°C 68.9°F20.5°C 96% 1.4 mph W2.3 kmh W 9.0 mph14.5 kmh 29.79 in1008.8 mb 1.15 in29.2 mm 1.32 in33.5 mm 1.46 in37.1 mm
05:01 PM 70.0°F21.1°C 68.8°F20.4°C 96% 1.5 mph SW2.4 kmh SW 9.0 mph14.5 kmh 29.80 in1009.1 mb 1.20 in30.5 mm 0.05 in1.3 mm 1.51 in38.4 mm
05:06 PM 70.0°F21.1°C 68.8°F20.4°C 96% 1.2 mph WSW1.9 kmh WSW 6.0 mph9.7 kmh 29.80 in1009.1 mb 1.22 in31.0 mm 0.24 in6.1 mm 1.53 in38.9 mm
05:11 PM 69.9°F21.1°C 69.0°F20.6°C 97% 1.2 mph W1.9 kmh W 6.0 mph9.7 kmh 29.80 in1009.1 mb 1.23 in31.2 mm 0.12 in3.0 mm 1.54 in39.1 mm
05:15 PM 70.0°F21.1°C 69.1°F20.6°C 97% 2.6 mph SW4.2 kmh SW 6.0 mph9.7 kmh 29.80 in1009.1 mb 1.24 in31.5 mm 0.15 in3.8 mm 1.56 in39.6 mm
05:20 PM 70.1°F21.2°C 69.2°F20.7°C 97% Calm Calm 5.0 mph8.0 kmh 29.80 in1009.1 mb 1.26 in32.0 mm 0.24 in6.1 mm 1.57 in39.9 mm
05:25 PM 70.1°F21.2°C 69.2°F20.7°C 97% 1.6 mph ESE2.6 kmh ESE 5.0 mph8.0 kmh 29.80 in1009.1 mb 1.27 in32.3 mm 0.12 in3.0 mm 1.58 in40.1 mm
05:30 PM 70.0°F21.1°C 69.1°F20.6°C 97% Calm Calm 4.0 mph6.4 kmh 29.81 in1009.5 mb 1.24 in31.5 mm 0.00 in0.0 mm 1.59 in40.4 mm
05:35 PM 70.0°F21.1°C 69.1°F20.6°C 97% 1.1 mph SE1.8 kmh SE 2.0 mph3.2 kmh 29.81 in1009.5 mb 1.03 in26.2 mm 0.00 in0.0 mm 1.61 in40.9 mm
05:40 PM 70.1°F21.2°C 69.2°F20.7°C 97% Calm Calm 2.0 mph3.2 kmh 29.81 in1009.5 mb 0.88 in22.4 mm 0.00 in0.0 mm 1.66 in42.2 mm
05:45 PM 70.1°F21.2°C 69.2°F20.7°C 97% 1.0 mph SE1.6 kmh SE 2.0 mph3.2 kmh 29.81 in1009.5 mb 0.69 in17.5 mm 0.00 in0.0 mm 1.74 in44.2 mm
05:50 PM 70.1°F21.2°C 69.2°F20.7°C 97% 1.0 mph SE1.6 kmh SE 2.0 mph3.2 kmh 29.81 in1009.5 mb 0.43 in10.9 mm 0.00 in0.0 mm 1.75 in44.5 mm
05:55 PM 70.2°F21.2°C 69.3°F20.7°C 97% 1.3 mph E2.1 kmh E 2.0 mph3.2 kmh 29.81 in1009.5 mb 0.31 in7.9 mm 0.00 in0.0 mm 1.76 in44.7 mm
06:00 PM 70.3°F21.3°C 69.7°F20.9°C 98% 1.0 mph SE1.6 kmh SE 2.0 mph3.2 kmh 29.82 in1009.8 mb 0.28 in7.1 mm 0.00 in0.0 mm 1.78 in45.2 mm
06:05 PM 70.2°F21.2°C 69.3°F20.7°C 97% 1.7 mph E2.7 kmh E 3.0 mph4.8 kmh 29.81 in1009.5 mb 0.26 in6.6 mm 0.00 in0.0 mm 1.79 in45.5 mm
06:10 PM 70.2°F21.2°C 69.6°F20.9°C 98% 1.0 mph SE1.6 kmh SE 3.0 mph4.8 kmh 29.81 in1009.5 mb 0.26 in6.6 mm 0.00 in0.0 mm 1.80 in45.7 mm
06:15 PM 70.2°F21.2°C 69.6°F20.9°C 98% Calm Calm 3.0 mph4.8 kmh 29.81 in1009.5 mb 0.27 in6.9 mm 0.12 in3.0 mm 1.82 in46.2 mm
06:20 PM 70.2°F21.2°C 69.6°F20.9°C 98% 1.0 mph WSW1.6 kmh WSW 3.0 mph4.8 kmh 29.81 in1009.5 mb 0.27 in6.9 mm 0.00 in0.0 mm 1.84 in46.7 mm
06:25 PM 70.2°F21.2°C 69.6°F20.9°C 98% Calm Calm 2.0 mph3.2 kmh 29.81 in1009.5 mb 0.29 in7.4 mm 0.24 in6.1 mm 1.87 in47.5 mm
06:30 PM 70.1°F21.2°C 69.5°F20.8°C 98% Calm Calm 1.0 mph1.6 kmh 29.81 in1009.5 mb 0.29 in7.4 mm 0.00 in0.0 mm 1.88 in47.8 mm
06:35 PM 70.1°F21.2°C 69.5°F20.8°C 98% Calm Calm 1.0 mph1.6 kmh 29.81 in1009.5 mb 0.28 in7.1 mm 0.00 in0.0 mm 1.89 in48.0 mm
06:40 PM 70.1°F21.2°C 69.5°F20.8°C 98% Calm Calm 1.0 mph1.6 kmh 29.81 in1009.5 mb 0.24 in6.1 mm 0.00 in0.0 mm 1.90 in48.3 mm
06:45 PM 70.1°F21.2°C 69.5°F20.8°C 98% 1.0 mph SW1.6 kmh SW 1.0 mph1.6 kmh 29.80 in1009.1 mb 0.16 in4.1 mm 0.00 in0.0 mm 1.90 in48.3 mm
06:50 PM 70.1°F21.2°C 69.5°F20.8°C 98% 1.0 mph SW1.6 kmh SW 1.0 mph1.6 kmh 29.80 in1009.1 mb 0.15 in3.8 mm 0.00 in0.0 mm 1.90 in48.3 mm
06:55 PM 70.2°F21.2°C 69.6°F20.9°C 98% Calm Calm 1.0 mph1.6 kmh 29.81 in1009.5 mb 0.15 in3.8 mm 0.00 in0.0 mm 1.91 in48.5 mm
07:00 PM 70.1°F21.2°C 69.5°F20.8°C 98% 1.0 mph ESE1.6 kmh ESE 2.0 mph3.2 kmh 29.80 in1009.1 mb 0.15 in3.8 mm 0.00 in0.0 mm 1.93 in49.0 mm
07:05 PM 70.1°F21.2°C 69.5°F20.8°C 98% 1.0 mph E1.6 kmh E 2.0 mph3.2 kmh 29.79 in1008.8 mb 0.15 in3.8 mm 0.00 in0.0 mm 1.94 in49.3 mm
07:10 PM 70.0°F21.1°C 69.4°F20.8°C 98% Calm Calm 2.0 mph3.2 kmh 29.79 in1008.8 mb 0.14 in3.6 mm 0.00 in0.0 mm 1.94 in49.3 mm
07:15 PM 70.1°F21.2°C 69.5°F20.8°C 98% 1.4 mph E2.3 kmh E 2.0 mph3.2 kmh 29.79 in1008.8 mb 0.12 in3.0 mm 0.00 in0.0 mm 1.94 in49.3 mm
07:20 PM 70.2°F21.2°C 69.6°F20.9°C 98% 1.0 mph NE1.6 kmh NE 2.0 mph3.2 kmh 29.79 in1008.8 mb 0.11 in2.8 mm 0.00 in0.0 mm 1.95 in49.5 mm
07:25 PM 70.2°F21.2°C 69.6°F20.9°C 98% 1.8 mph ENE2.9 kmh ENE 3.0 mph4.8 kmh 29.79 in1008.8 mb 0.08 in2.0 mm 0.00 in0.0 mm 1.95 in49.5 mm
07:30 PM 70.2°F21.2°C 69.6°F20.9°C 98% 1.5 mph E2.4 kmh E 3.0 mph4.8 kmh 29.79 in1008.8 mb 0.07 in1.8 mm 0.00 in0.0 mm 1.95 in49.5 mm
07:35 PM 70.2°F21.2°C 69.6°F20.9°C 98% 1.2 mph E1.9 kmh E 3.0 mph4.8 kmh 29.79 in1008.8 mb 0.06 in1.5 mm 0.00 in0.0 mm 1.95 in49.5 mm
07:40 PM 70.2°F21.2°C 69.6°F20.9°C 98% 1.0 mph SE1.6 kmh SE 3.0 mph4.8 kmh 29.80 in1009.1 mb 0.05 in1.3 mm 0.00 in0.0 mm 1.95 in49.5 mm
07:45 PM 70.2°F21.2°C 69.6°F20.9°C 98% 1.0 mph SE1.6 kmh SE 3.0 mph4.8 kmh 29.81 in1009.5 mb 0.05 in1.3 mm 0.00 in0.0 mm 1.95 in49.5 mm
07:50 PM 70.3°F21.3°C 69.7°F20.9°C 98% 1.0 mph ESE1.6 kmh ESE 3.0 mph4.8 kmh 29.82 in1009.8 mb 0.05 in1.3 mm 0.00 in0.0 mm 1.95 in49.5 mm
07:55 PM 70.3°F21.3°C 69.7°F20.9°C 98% 1.0 mph SE1.6 kmh SE 2.0 mph3.2 kmh 29.82 in1009.8 mb 0.04 in1.0 mm 0.00 in0.0 mm 1.95 in49.5 mm
08:00 PM 70.3°F21.3°C 69.7°F20.9°C 98% 1.8 mph SE2.9 kmh SE 3.0 mph4.8 kmh 29.82 in1009.8 mb 0.02 in0.5 mm 0.00 in0.0 mm 1.95 in49.5 mm
08:05 PM 70.4°F21.3°C 69.8°F21.0°C 98% 2.1 mph E3.4 kmh E 4.0 mph6.4 kmh 29.82 in1009.8 mb 0.01 in0.3 mm 0.00 in0.0 mm 1.95 in49.5 mm
08:10 PM 70.4°F21.3°C 69.8°F21.0°C 98% 1.7 mph E2.7 kmh E 4.0 mph6.4 kmh 29.82 in1009.8 mb 0.01 in0.3 mm 0.00 in0.0 mm 1.95 in49.5 mm
08:15 PM 70.4°F21.3°C 69.8°F21.0°C 98% 1.0 mph ESE1.6 kmh ESE 4.0 mph6.4 kmh 29.82 in1009.8 mb 0.01 in0.3 mm 0.00 in0.0 mm 1.95 in49.5 mm
08:20 PM 70.5°F21.4°C 69.9°F21.1°C 98% 1.8 mph ESE2.9 kmh ESE 4.0 mph6.4 kmh 29.82 in1009.8 mb 0.00 in0.0 mm 0.00 in0.0 mm 1.95 in49.5 mm
08:25 PM 70.4°F21.3°C 69.8°F21.0°C 98% 1.7 mph E2.7 kmh E 4.0 mph6.4 kmh 29.82 in1009.8 mb 0.00 in0.0 mm 0.00 in0.0 mm 1.95 in49.5 mm
08:30 PM 70.3°F21.3°C 69.7°F20.9°C 98% 1.5 mph ESE2.4 kmh ESE 4.0 mph6.4 kmh 29.82 in1009.8 mb 0.00 in0.0 mm 0.00 in0.0 mm 1.95 in49.5 mm
08:35 PM 70.3°F21.3°C 69.7°F20.9°C 98% 1.3 mph SE2.1 kmh SE 4.0 mph6.4 kmh 29.82 in1009.8 mb 0.00 in0.0 mm 0.00 in0.0 mm 1.95 in49.5 mm
08:40 PM 70.3°F21.3°C 69.7°F20.9°C 98% Calm Calm 4.0 mph6.4 kmh 29.82 in1009.8 mb 0.00 in0.0 mm 0.00 in0.0 mm 1.95 in49.5 mm
08:45 PM 70.3°F21.3°C 69.7°F20.9°C 98% 1.5 mph SE2.4 kmh SE 4.0 mph6.4 kmh 29.82 in1009.8 mb 0.00 in0.0 mm 0.00 in0.0 mm 1.95 in49.5 mm
08:50 PM 70.3°F21.3°C 69.7°F20.9°C 98% 1.9 mph ESE3.1 kmh ESE 5.0 mph8.0 kmh 29.82 in1009.8 mb 0.00 in0.0 mm 0.00 in0.0 mm 1.95 in49.5 mm
08:55 PM 70.3°F21.3°C 69.7°F20.9°C 98% 1.1 mph E1.8 kmh E 5.0 mph8.0 kmh 29.82 in1009.8 mb 0.00 in0.0 mm 0.00 in0.0 mm 1.95 in49.5 mm
09:00 PM 70.4°F21.3°C 69.8°F21.0°C 98% 2.2 mph SE3.5 kmh SE 5.0 mph8.0 kmh 29.82 in1009.8 mb 0.00 in0.0 mm 0.00 in0.0 mm 1.95 in49.5 mm
09:05 PM 70.4°F21.3°C 69.8°F21.0°C 98% 1.9 mph SE3.1 kmh SE 8.0 mph12.9 kmh 29.82 in1009.8 mb 0.00 in0.0 mm 0.00 in0.0 mm 1.95 in49.5 mm
09:10 PM 70.4°F21.3°C 69.8°F21.0°C 98% 1.6 mph ESE2.6 kmh ESE 8.0 mph12.9 kmh 29.82 in1009.8 mb 0.00 in0.0 mm 0.00 in0.0 mm 1.95 in49.5 mm
09:15 PM 70.5°F21.4°C 69.9°F21.1°C 98% 2.0 mph E3.2 kmh E 8.0 mph12.9 kmh 29.82 in1009.8 mb 0.00 in0.0 mm 0.00 in0.0 mm 1.95 in49.5 mm
09:20 PM 70.5°F21.4°C 69.9°F21.1°C 98% 1.8 mph E2.9 kmh E 8.0 mph12.9 kmh 29.82 in1009.8 mb 0.00 in0.0 mm 0.00 in0.0 mm 1.95 in49.5 mm
09:25 PM 70.6°F21.4°C 70.0°F21.1°C 98% 1.0 mph ESE1.6 kmh ESE 5.0 mph8.0 kmh 29.82 in1009.8 mb 0.00 in0.0 mm 0.00 in0.0 mm 1.95 in49.5 mm
09:30 PM 70.6°F21.4°C 70.0°F21.1°C 98% 3.3 mph ESE5.3 kmh ESE 7.0 mph11.3 kmh 29.81 in1009.5 mb 0.00 in0.0 mm 0.00 in0.0 mm 1.95 in49.5 mm
09:35 PM 70.6°F21.4°C 70.0°F21.1°C 98% 2.9 mph ESE4.7 kmh ESE 7.0 mph11.3 kmh 29.81 in1009.5 mb 0.00 in0.0 mm 0.00 in0.0 mm 1.95 in49.5 mm
09:40 PM 70.6°F21.4°C 70.0°F21.1°C 98% 4.4 mph E7.1 kmh E 8.0 mph12.9 kmh 29.82 in1009.8 mb 0.00 in0.0 mm 0.00 in0.0 mm 1.95 in49.5 mm
09:45 PM 70.7°F21.5°C 70.1°F21.2°C 98% 1.6 mph ENE2.6 kmh ENE 8.0 mph12.9 kmh 29.82 in1009.8 mb 0.00 in0.0 mm 0.00 in0.0 mm 1.95 in49.5 mm
09:50 PM 70.6°F21.4°C 70.0°F21.1°C 98% 1.8 mph E2.9 kmh E 8.0 mph12.9 kmh 29.82 in1009.8 mb 0.00 in0.0 mm 0.00 in0.0 mm 1.95 in49.5 mm
09:55 PM 70.6°F21.4°C 70.0°F21.1°C 98% 3.0 mph E4.8 kmh E 8.0 mph12.9 kmh 29.82 in1009.8 mb 0.00 in0.0 mm 0.00 in0.0 mm 1.95 in49.5 mm
10:00 PM 70.6°F21.4°C 70.0°F21.1°C 98% 1.0 mph E1.6 kmh E 6.0 mph9.7 kmh 29.82 in1009.8 mb 0.00 in0.0 mm 0.00 in0.0 mm 1.95 in49.5 mm
10:05 PM 70.5°F21.4°C 69.9°F21.1°C 98% 4.0 mph E6.4 kmh E 7.0 mph11.3 kmh 29.82 in1009.8 mb 0.00 in0.0 mm 0.00 in0.0 mm 1.95 in49.5 mm
10:10 PM 70.5°F21.4°C 69.9°F21.1°C 98% 3.6 mph E5.8 kmh E 7.0 mph11.3 kmh 29.82 in1009.8 mb 0.00 in0.0 mm 0.00 in0.0 mm 1.95 in49.5 mm
10:15 PM 70.5°F21.4°C 69.9°F21.1°C 98% 2.7 mph E4.3 kmh E 7.0 mph11.3 kmh 29.82 in1009.8 mb 0.00 in0.0 mm 0.00 in0.0 mm 1.95 in49.5 mm
10:20 PM 70.5°F21.4°C 69.9°F21.1°C 98% 3.2 mph E5.1 kmh E 7.0 mph11.3 kmh 29.83 in1010.2 mb 0.00 in0.0 mm 0.00 in0.0 mm 1.95 in49.5 mm
10:25 PM 70.5°F21.4°C 69.9°F21.1°C 98% 1.7 mph ESE2.7 kmh ESE 7.0 mph11.3 kmh 29.83 in1010.2 mb 0.00 in0.0 mm 0.00 in0.0 mm 1.95 in49.5 mm
10:30 PM 70.5°F21.4°C 69.9°F21.1°C 98% 2.5 mph ESE4.0 kmh ESE 6.0 mph9.7 kmh 29.83 in1010.2 mb 0.00 in0.0 mm 0.00 in0.0 mm 1.95 in49.5 mm
10:35 PM 70.4°F21.3°C 69.8°F21.0°C 98% 2.3 mph SE3.7 kmh SE 7.0 mph11.3 kmh 29.83 in1010.2 mb 0.00 in0.0 mm 0.00 in0.0 mm 1.95 in49.5 mm
10:40 PM 70.4°F21.3°C 69.8°F21.0°C 98% 2.3 mph SE3.7 kmh SE 7.0 mph11.3 kmh 29.84 in1010.5 mb 0.00 in0.0 mm 0.00 in0.0 mm 1.95 in49.5 mm
10:45 PM 70.4°F21.3°C 69.8°F21.0°C 98% 2.9 mph SE4.7 kmh SE 7.0 mph11.3 kmh 29.84 in1010.5 mb 0.00 in0.0 mm 0.00 in0.0 mm 1.95 in49.5 mm
10:51 PM 70.3°F21.3°C 69.7°F20.9°C 98% 3.6 mph SE5.8 kmh SE 7.0 mph11.3 kmh 29.84 in1010.5 mb 0.00 in0.0 mm 0.00 in0.0 mm 1.95 in49.5 mm
10:55 PM 70.3°F21.3°C 69.7°F20.9°C 98% 3.0 mph SE4.8 kmh SE 6.0 mph9.7 kmh 29.84 in1010.5 mb 0.00 in0.0 mm 0.00 in0.0 mm 1.95 in49.5 mm
11:01 PM 70.3°F21.3°C 69.7°F20.9°C 98% 3.1 mph ESE5.0 kmh ESE 6.0 mph9.7 kmh 29.84 in1010.5 mb 0.00 in0.0 mm 0.00 in0.0 mm 1.95 in49.5 mm
11:06 PM 70.3°F21.3°C 69.7°F20.9°C 98% 3.1 mph SE5.0 kmh SE 8.0 mph12.9 kmh 29.84 in1010.5 mb 0.00 in0.0 mm 0.00 in0.0 mm 1.95 in49.5 mm
11:10 PM 70.2°F21.2°C 69.6°F20.9°C 98% 2.5 mph ESE4.0 kmh ESE 8.0 mph12.9 kmh 29.85 in1010.8 mb 0.00 in0.0 mm 0.00 in0.0 mm 1.95 in49.5 mm
11:14 PM 70.2°F21.2°C 69.6°F20.9°C 98% 2.5 mph ESE4.0 kmh ESE 8.0 mph12.9 kmh 29.85 in1010.8 mb 0.00 in0.0 mm 0.00 in0.0 mm 1.95 in49.5 mm
11:19 PM 70.1°F21.2°C 69.5°F20.8°C 98% 1.8 mph SE2.9 kmh SE 8.0 mph12.9 kmh 29.85 in1010.8 mb 0.00 in0.0 mm 0.00 in0.0 mm 1.95 in49.5 mm
11:24 PM 70.1°F21.2°C 69.5°F20.8°C 98% 1.5 mph SE2.4 kmh SE 8.0 mph12.9 kmh 29.86 in1011.2 mb 0.00 in0.0 mm 0.00 in0.0 mm 1.95 in49.5 mm
11:29 PM 70.1°F21.2°C 69.5°F20.8°C 98% 2.2 mph SE3.5 kmh SE 7.0 mph11.3 kmh 29.86 in1011.2 mb 0.00 in0.0 mm 0.00 in0.0 mm 1.95 in49.5 mm
11:34 PM 70.0°F21.1°C 69.4°F20.8°C 98% 3.0 mph SE4.8 kmh SE 6.0 mph9.7 kmh 29.86 in1011.2 mb 0.00 in0.0 mm 0.00 in0.0 mm 1.95 in49.5 mm
11:39 PM 70.0°F21.1°C 69.4°F20.8°C 98% 3.3 mph SE5.3 kmh SE 6.0 mph9.7 kmh 29.86 in1011.2 mb 0.00 in0.0 mm 0.00 in0.0 mm 1.95 in49.5 mm
11:44 PM 70.0°F21.1°C 69.4°F20.8°C 98% 1.8 mph SE2.9 kmh SE 6.0 mph9.7 kmh 29.86 in1011.2 mb 0.00 in0.0 mm 0.00 in0.0 mm 1.95 in49.5 mm
11:49 PM 70.0°F21.1°C 69.4°F20.8°C 98% 1.4 mph SE2.3 kmh SE 6.0 mph9.7 kmh 29.86 in1011.2 mb 0.00 in0.0 mm 0.00 in0.0 mm 1.95 in49.5 mm
11:54 PM 70.1°F21.2°C 69.5°F20.8°C 98% 1.3 mph SE2.1 kmh SE 6.0 mph9.7 kmh 29.86 in1011.2 mb 0.00 in0.0 mm 0.00 in0.0 mm 1.95 in49.5 mm
11:59 PM 70.0°F21.1°C 69.4°F20.8°C 98% 2.0 mph SE3.2 kmh SE 4.0 mph6.4 kmh 29.86 in1011.2 mb 0.00 in0.0 mm 0.00 in0.0 mm 1.95 in49.5 mm